Time;durP1;ratioP1;P1;durP2;ratioP2;P2;SDS_P1;SDS_P2;PMS_P1;PMS_P2;Temp;Humidity;BMP_temperature;BMP_pressure;BME280_temperature;BME280_humidity;BME280_pressure;Samples;Min_cycle;Max_cycle;Signal;HPM_P1;HPM_P2
2022/09/26 00:01:19;;;;;;;5.17;4.70;;;;;;;14.69;99.33;99298.80;1751887;80;21488;-58
2022/09/26 00:03:48;;;;;;;6.28;5.53;;;;;;;14.65;99.42;99294.19;1760842;80;22088;-60
2022/09/26 00:06:16;;;;;;;5.40;4.90;;;;;;;14.58;99.92;99289.78;1747730;80;21551;-59
2022/09/26 00:08:45;;;;;;;5.53;4.95;;;;;;;14.58;99.97;99291.59;1747729;80;21428;-59
2022/09/26 00:11:15;;;;;;;5.95;5.35;;;;;;;14.59;99.59;99291.47;1739967;80;21539;-59
2022/09/26 00:13:43;;;;;;;8.98;5.65;;;;;;;14.62;100.00;99281.17;1737743;80;21450;-59
2022/09/26 00:16:12;;;;;;;5.75;5.25;;;;;;;14.65;99.65;99285.41;1754121;80;21550;-59
2022/09/26 00:18:39;;;;;;;;;;;;;;;14.61;100.00;99291.38;1755341;80;21478;-59
2022/09/26 00:21:10;;;;;;;6.03;4.85;;;;;;;14.55;100.00;99289.94;1744431;80;20480;-59
2022/09/26 00:23:37;;;;;;;5.58;5.08;;;;;;;14.52;100.00;99283.55;1748989;80;21863;-59
2022/09/26 00:26:04;;;;;;;6.35;5.05;;;;;;;14.51;100.00;99278.34;1754178;80;21552;-59
2022/09/26 00:28:32;;;;;;;5.37;4.87;;;;;;;14.51;100.00;99275.70;1753287;80;21512;-59
2022/09/26 00:31:04;;;;;;;7.78;5.97;;;;;;;14.51;100.00;99287.13;1737406;80;21494;-59
2022/09/26 00:33:30;;;;;;;5.62;5.12;;;;;;;14.49;100.00;99292.99;1742515;80;21487;-59
2022/09/26 00:35:57;;;;;;;6.28;5.67;;;;;;;14.48;100.00;99287.31;1753202;80;21723;-59
2022/09/26 00:38:24;;;;;;;6.12;5.00;;;;;;;14.50;100.00;99290.70;1751940;80;21470;-59
2022/09/26 00:40:50;;;;;;;5.33;4.83;;;;;;;14.50;100.00;99286.73;1752862;80;21534;-59
2022/09/26 00:43:41;;;;;;;5.70;5.10;;;;;;;14.53;100.00;99293.16;1729153;80;21042;-59
2022/09/26 00:46:39;;;;;;;5.25;4.85;;;;;;;14.56;100.00;99290.33;1758290;80;21562;-59
2022/09/26 00:49:30;;;;;;;5.90;5.35;;;;;;;14.52;100.00;99291.93;1736267;80;21549;-59
2022/09/26 00:52:05;;;;;;;5.58;4.87;;;;;;;14.43;100.00;99289.88;1747801;80;21014;-59
2022/09/26 00:54:33;;;;;;;5.53;4.78;;;;;;;14.46;100.00;99281.75;1759274;80;21500;-59
2022/09/26 00:57:04;;;;;;;5.80;5.27;;;;;;;14.47;100.00;99281.66;1742997;80;21505;-59
2022/09/26 00:59:37;;;;;;;7.50;5.20;;;;;;;14.47;100.00;99279.50;1746409;80;21416;-59
2022/09/26 01:02:04;;;;;;;6.03;4.97;;;;;;;14.44;99.94;99275.72;1738244;80;21793;-59
2022/09/26 01:04:33;;;;;;;5.92;4.78;;;;;;;14.44;100.00;99273.08;1753198;80;21493;-59
2022/09/26 01:07:01;;;;;;;7.10;5.35;;;;;;;14.48;100.00;99270.60;1736183;80;21022;-59
2022/09/26 01:09:29;;;;;;;5.67;4.85;;;;;;;14.53;99.92;99269.84;1747183;80;21529;-58
2022/09/26 01:11:55;;;;;;;5.92;5.03;;;;;;;14.54;99.91;99265.77;1746781;80;21525;-59
2022/09/26 01:14:22;;;;;;;5.22;4.80;;;;;;;14.55;99.55;99263.48;1737014;80;22049;-59
2022/09/26 01:16:51;;;;;;;7.47;4.85;;;;;;;14.53;100.00;99264.55;1758799;80;21446;-58
2022/09/26 01:19:53;;;;;;;5.20;4.70;;;;;;;14.53;100.00;99268.03;1754023;80;21526;-58
2022/09/26 01:22:50;;;;;;;5.45;4.95;;;;;;;14.55;100.00;99267.94;1738961;80;21475;-58
2022/09/26 01:25:46;;;;;;;5.65;5.08;;;;;;;14.54;100.00;99271.52;1752733;80;21514;-59
2022/09/26 01:28:52;;;;;;;6.15;4.92;;;;;;;14.53;100.00;99265.38;1756648;80;21727;-59
2022/09/26 01:31:29;;;;;;;6.05;4.72;;;;;;;14.48;100.00;99269.28;1734589;80;21015;-58
2022/09/26 01:34:23;;;;;;;9.00;4.87;;;;;;;14.47;100.00;99267.59;1755396;80;21515;-58
2022/09/26 01:37:04;;;;;;;5.28;4.60;;;;;;;14.44;100.00;99261.17;1749028;80;21484;-58
2022/09/26 01:39:45;;;;;;;4.92;4.53;;;;;;;14.39;100.00;99265.42;1748179;80;21472;-58
2022/09/26 01:42:26;;;;;;;5.28;4.78;;;;;;;14.43;100.00;99262.11;1754825;80;21747;-58
2022/09/26 01:45:13;;;;;;;8.53;5.25;;;;;;;14.40;100.00;99271.94;1739890;80;21535;-58
2022/09/26 01:47:48;;;;;;;4.90;4.25;;;;;;;14.39;100.00;99274.23;1750388;80;21495;-58
2022/09/26 01:50:41;;;;;;;4.62;4.20;;;;;;;14.32;100.00;99285.30;1750070;80;20989;-58
2022/09/26 01:53:19;;;;;;;4.65;4.25;;;;;;;14.29;100.00;99285.00;1763263;80;21589;-58
2022/09/26 01:56:07;;;;;;;7.35;4.33;;;;;;;14.25;100.00;99280.02;1759382;80;21793;-58
2022/09/26 01:58:39;;;;;;;5.17;4.37;;;;;;;14.29;100.00;99282.84;1747552;80;20939;-59
2022/09/26 02:01:10;;;;;;;6.08;4.75;;;;;;;14.28;100.00;99279.35;1754013;80;21558;-58
2022/09/26 02:03:42;;;;;;;5.10;4.53;;;;;;;14.29;100.00;99281.52;1749217;80;21459;-59
2022/09/26 02:06:13;;;;;;;4.83;4.45;;;;;;;14.28;100.00;99282.45;1754748;80;21494;-58
2022/09/26 02:08:56;;;;;;;5.87;4.95;;;;;;;14.25;100.00;99280.86;1754922;80;21479;-58
2022/09/26 02:11:24;;;;;;;5.97;5.37;;;;;;;14.26;100.00;99292.28;1741081;80;20926;-58
2022/09/26 02:14:05;;;;;;;6.45;5.62;;;;;;;14.20;100.00;99289.55;1710971;82;21546;-58
2022/09/26 02:16:46;;;;;;;6.05;5.50;;;;;;;14.16;100.00;99290.70;1747866;80;21579;-58
2022/09/26 02:19:27;;;;;;;6.22;5.70;;;;;;;14.17;100.00;99288.44;1751627;80;21549;-58
2022/09/26 02:21:54;;;;;;;6.45;5.85;;;;;;;14.19;100.00;99284.74;1762156;80;21663;-58
2022/09/26 02:24:21;;;;;;;6.28;5.62;;;;;;;14.16;100.00;99286.73;1747608;80;20999;-58
2022/09/26 02:26:49;;;;;;;5.97;5.37;;;;;;;14.18;100.00;99290.13;1753763;80;21550;-58
2022/09/26 02:29:19;;;;;;;5.85;5.25;;;;;;;14.18;100.00;99280.42;1764538;80;21577;-58
2022/09/26 02:31:57;;;;;;;6.67;5.97;;;;;;;14.23;100.00;99272.18;1761608;80;21476;-58
2022/09/26 02:34:24;;;;;;;5.87;5.40;;;;;;;14.25;100.00;99272.92;1759184;80;21912;-58
2022/09/26 02:36:53;;;;;;;6.27;5.57;;;;;;;14.27;100.00;99268.39;1768256;80;21431;-58
2022/09/26 02:39:20;;;;;;;5.42;4.92;;;;;;;14.30;100.00;99271.33;1758927;80;21517;-58
2022/09/26 02:42:20;;;;;;;5.95;5.35;;;;;;;14.30;100.00;99256.30;1748179;80;21593;-58
2022/09/26 02:45:15;;;;;;;6.37;4.95;;;;;;;14.33;100.00;99261.37;1755402;80;21415;-58
2022/09/26 02:48:12;;;;;;;6.40;5.03;;;;;;;14.34;100.00;99259.12;1751273;80;22160;-58
2022/09/26 02:51:06;;;;;;;6.03;5.17;;;;;;;14.33;100.00;99257.41;1751639;80;21577;-58
2022/09/26 02:53:50;;;;;;;6.47;4.72;;;;;;;14.29;100.00;99256.40;1743985;80;21653;-58
2022/09/26 02:56:35;;;;;;;7.95;5.33;;;;;;;14.30;100.00;99244.89;1726296;80;21644;-58
2022/09/26 02:59:21;;;;;;;5.72;5.22;;;;;;;14.31;100.00;99244.77;1752950;80;21668;-58
2022/09/26 03:02:13;;;;;;;5.10;4.60;;;;;;;14.32;100.00;99241.19;1752132;80;22060;-58
2022/09/26 03:05:03;;;;;;;5.80;4.70;;;;;;;14.35;100.00;99244.09;1727481;80;20961;-58
2022/09/26 03:07:34;;;;;;;5.85;4.95;;;;;;;14.26;100.00;99236.30;1745183;80;21578;-58
2022/09/26 03:10:02;;;;;;;6.12;4.45;;;;;;;14.26;100.00;99231.02;1730582;80;21571;-59
2022/09/26 03:12:30;;;;;;;5.25;4.83;;;;;;;14.26;100.00;99229.69;1757501;80;21697;-59
2022/09/26 03:14:56;;;;;;;6.70;4.60;;;;;;;14.26;100.00;99231.02;1738342;80;21934;-59
2022/09/26 03:17:24;;;;;;;5.33;4.80;;;;;;;14.27;100.00;99230.53;1752813;80;21502;-59
2022/09/26 03:19:59;;;;;;;5.15;4.65;;;;;;;14.27;100.00;99231.84;1727624;80;21569;-59
2022/09/26 03:22:26;;;;;;;4.62;4.22;;;;;;;14.23;100.00;99230.36;1755537;80;21887;-59
2022/09/26 03:24:53;;;;;;;4.75;4.35;;;;;;;14.19;100.00;99236.31;1755183;80;21409;-58
2022/09/26 03:27:20;;;;;;;6.70;4.90;;;;;;;14.21;100.00;99235.25;1753939;80;22186;-58
2022/09/26 03:29:48;;;;;;;9.00;5.53;;;;;;;14.23;100.00;99233.00;1748832;80;21858;-58
2022/09/26 03:32:16;;;;;;;7.97;4.87;;;;;;;14.23;100.00;99232.52;1762351;80;20963;-58
2022/09/26 03:34:44;;;;;;;5.10;4.70;;;;;;;14.23;100.00;99237.81;1752889;80;21396;-59
2022/09/26 03:37:11;;;;;;;8.38;4.80;;;;;;;14.21;100.00;99248.48;1750411;80;21053;-58
2022/09/26 03:39:38;;;;;;;5.62;5.12;;;;;;;14.22;100.00;99246.67;1748920;80;21494;-59
2022/09/26 03:42:09;;;;;;;5.10;4.65;;;;;;;14.22;100.00;99236.09;1750451;80;21530;-58
2022/09/26 03:44:38;;;;;;;4.87;4.42;;;;;;;14.18;100.00;99231.51;1738582;80;21021;-58
2022/09/26 03:47:09;;;;;;;4.90;4.50;;;;;;;14.19;100.00;99229.70;1714259;80;21593;-58
2022/09/26 03:49:38;;;;;;;5.90;4.30;;;;;;;14.17;100.00;99233.77;1748060;80;21558;-58
2022/09/26 03:52:06;;;;;;;4.83;4.42;;;;;;;14.17;100.00;99229.80;1764113;80;21914;-58
2022/09/26 03:54:33;;;;;;;5.33;4.60;;;;;;;14.14;100.00;99235.27;1749299;80;20970;-59
2022/09/26 03:57:00;;;;;;;4.70;4.08;;;;;;;14.12;100.00;99238.48;1759717;80;21537;-59
2022/09/26 03:59:26;;;;;;;5.25;4.75;;;;;;;14.13;100.00;99236.72;1746992;80;21572;-59
2022/09/26 04:01:53;;;;;;;5.17;4.67;;;;;;;14.15;100.00;99236.98;1759285;80;21068;-58
2022/09/26 04:04:20;;;;;;;4.85;4.35;;;;;;;14.17;100.00;99236.41;1763583;80;21742;-59
2022/09/26 04:06:49;;;;;;;5.20;4.33;;;;;;;14.21;100.00;99240.55;1759538;80;21439;-59
2022/09/26 04:09:16;;;;;;;6.10;4.22;;;;;;;14.17;100.00;99234.24;1755474;80;20978;-58
2022/09/26 04:11:45;;;;;;;4.45;4.03;;;;;;;14.15;100.00;99234.34;1746068;80;21494;-58
2022/09/26 04:14:12;;;;;;;4.33;4.03;;;;;;;14.16;100.00;99228.56;1737544;80;21612;-58
2022/09/26 04:16:39;;;;;;;4.58;3.92;;;;;;;14.21;100.00;99233.09;1756603;80;21789;-58
2022/09/26 04:19:07;;;;;;;4.72;4.20;;;;;;;14.26;100.00;99234.98;1748945;80;21555;-58
2022/09/26 04:21:35;;;;;;;4.78;4.37;;;;;;;14.26;100.00;99233.66;1754054;80;21550;-58
2022/09/26 04:24:01;;;;;;;4.35;4.05;;;;;;;14.26;100.00;99236.75;1749131;80;21562;-59
2022/09/26 04:26:29;;;;;;;4.12;3.80;;;;;;;14.24;100.00;99237.33;1757974;80;21521;-58
2022/09/26 04:28:56;;;;;;;4.78;4.17;;;;;;;14.20;100.00;99237.55;1747831;80;22116;-59
2022/09/26 04:31:29;;;;;;;5.55;4.25;;;;;;;14.18;100.00;99233.28;1762495;80;21400;-58
2022/09/26 04:33:57;;;;;;;7.10;4.35;;;;;;;14.14;100.00;99230.46;1753861;80;21535;-58
2022/09/26 04:36:24;;;;;;;5.72;3.83;;;;;;;14.12;100.00;99237.16;1743968;80;21482;-58
2022/09/26 04:38:50;;;;;;;5.00;4.00;;;;;;;14.13;100.00;99239.36;1758783;80;21471;-60
2022/09/26 04:41:19;;;;;;;4.28;3.92;;;;;;;14.13;100.00;99236.72;1753078;80;21921;-59
2022/09/26 04:43:48;;;;;;;4.42;3.75;;;;;;;14.09;100.00;99238.70;1729488;80;21446;-59
2022/09/26 04:46:19;;;;;;;4.30;3.90;;;;;;;14.05;100.00;99241.63;1755501;80;21524;-58
2022/09/26 04:48:51;;;;;;;5.65;4.40;;;;;;;14.00;100.00;99236.64;1741767;79;21542;-59
2022/09/26 04:51:21;;;;;;;4.35;3.75;;;;;;;13.95;100.00;99232.95;1730814;80;21411;-58
2022/09/26 04:53:49;;;;;;;4.33;3.98;;;;;;;13.94;100.00;99228.63;1718903;80;21746;-58
2022/09/26 04:56:19;;;;;;;4.30;4.00;;;;;;;14.02;100.00;99221.05;1706749;82;21462;-59
2022/09/26 04:58:46;;;;;;;4.22;3.85;;;;;;;14.05;100.00;99221.31;1706522;80;21567;-59
2022/09/26 05:01:16;;;;;;;4.42;4.03;;;;;;;14.09;100.00;99221.97;1709163;83;22080;-59
2022/09/26 05:04:02;;;;;;;4.00;3.70;;;;;;;14.11;100.00;99224.04;1714214;80;21522;-59
2022/09/26 05:06:30;;;;;;;4.58;4.03;;;;;;;14.12;100.00;99225.75;1713726;81;21849;-59
2022/09/26 05:09:00;;;;;;;4.22;3.87;;;;;;;14.11;100.00;99220.95;1715804;81;21593;-59
2022/09/26 05:11:40;;;;;;;4.25;3.85;;;;;;;14.07;100.00;99226.51;1709134;80;21478;-60
2022/09/26 05:14:09;;;;;;;4.65;3.72;;;;;;;14.10;100.00;99213.11;1714945;80;21574;-59
2022/09/26 05:16:38;;;;;;;4.05;3.75;;;;;;;14.09;100.00;99211.39;1702456;80;21527;-59
2022/09/26 05:19:07;;;;;;;3.92;3.67;;;;;;;14.15;100.00;99207.06;1710452;80;21828;-60
2022/09/26 05:21:36;;;;;;;4.00;3.67;;;;;;;14.17;100.00;99219.22;1699388;80;21537;-60
2022/09/26 05:26:51;;;;;;;4.90;4.35;;;;;;;14.24;100.00;99224.98;1717197;80;21541;-61
2022/09/26 05:29:20;;;;;;;5.60;4.83;;;;;;;14.28;100.00;99219.86;1705415;83;21554;-59
2022/09/26 05:31:53;;;;;;;3.95;3.65;;;;;;;14.32;100.00;99221.83;1698863;83;21585;-59
2022/09/26 05:34:23;;;;;;;4.47;4.08;;;;;;;14.32;100.00;99220.03;1710069;80;21978;-59
2022/09/26 05:36:52;;;;;;;7.03;3.60;;;;;;;14.32;100.00;99220.51;1703996;82;21468;-59
2022/09/26 05:42:05;;;;;;;3.83;3.45;;;;;;;14.35;100.00;99222.48;1709582;80;20684;-60
2022/09/26 05:44:35;;;;;;;5.92;3.67;;;;;;;14.36;100.00;99214.91;1711022;80;21617;-60
2022/09/26 05:47:02;;;;;;;3.98;3.62;;;;;;;14.41;100.00;99202.72;1711763;81;21498;-60
2022/09/26 05:49:29;;;;;;;3.92;3.62;;;;;;;14.51;100.00;99200.31;1709321;80;21558;-59
2022/09/26 05:51:56;;;;;;;3.87;3.58;;;;;;;14.53;100.00;99191.80;1742108;80;21570;-59
2022/09/26 05:54:23;;;;;;;6.05;3.87;;;;;;;14.54;100.00;99196.99;1761277;80;21471;-59
2022/09/26 05:56:50;;;;;;;5.12;3.52;;;;;;;14.54;100.00;99195.67;1756679;80;21925;-59
2022/09/26 05:59:36;;;;;;;4.08;3.10;;;;;;;14.56;100.00;99193.77;1760852;80;21017;-59
2022/09/26 06:02:21;;;;;;;5.40;3.62;;;;;;;14.57;100.00;99194.16;1754564;80;21578;-60
2022/09/26 06:04:52;;;;;;;4.47;3.83;;;;;;;14.63;100.00;99200.00;1738905;80;21550;-62
2022/09/26 06:07:26;;;;;;;3.75;3.45;;;;;;;14.67;100.00;99198.84;1754836;80;21402;-59
2022/09/26 06:09:53;;;;;;;3.65;3.40;;;;;;;14.68;100.00;99197.42;1755594;80;21783;-60
2022/09/26 06:12:22;;;;;;;4.87;3.75;;;;;;;14.69;100.00;99199.13;1753749;80;21644;-60
2022/09/26 06:14:48;;;;;;;3.77;3.47;;;;;;;14.75;100.00;99192.58;1733084;80;21528;-62
2022/09/26 06:17:16;;;;;;;4.28;3.35;;;;;;;14.74;100.00;99199.64;1761358;80;21416;-60
2022/09/26 06:19:43;;;;;;;3.80;3.50;;;;;;;14.73;100.00;99200.61;1758621;80;20989;-60
2022/09/26 06:22:10;;;;;;;3.80;3.50;;;;;;;14.75;100.00;99199.19;1763134;80;21574;-60
2022/09/26 06:24:38;;;;;;;3.77;3.47;;;;;;;14.77;100.00;99203.91;1747500;80;21621;-62
2022/09/26 06:27:06;;;;;;;3.77;3.47;;;;;;;14.79;100.00;99202.84;1748375;80;21530;-61
2022/09/26 06:29:34;;;;;;;3.87;3.55;;;;;;;14.88;100.00;99206.67;1742983;80;21100;-60
2022/09/26 06:32:02;;;;;;;8.40;4.12;;;;;;;14.90;100.00;99207.42;1755026;80;21434;-60
2022/09/26 06:34:47;;;;;;;5.28;4.78;;;;;;;14.92;100.00;99209.48;1763106;80;22000;-61
2022/09/26 06:37:24;;;;;;;4.85;3.70;;;;;;;14.96;100.00;99226.01;1679945;83;21060;-59
2022/09/26 06:39:51;;;;;;;4.70;4.00;;;;;;;14.96;100.00;99225.52;1747981;80;21175;-60
2022/09/26 06:42:18;;;;;;;15.83;13.35;;;;;;;14.95;100.00;99214.55;1758252;80;21065;-63
2022/09/26 06:44:48;;;;;;;15.95;12.23;;;;;;;14.97;100.00;99217.09;1621328;81;21509;-62
2022/09/26 06:47:23;;;;;;;10.38;7.90;;;;;;;15.00;100.00;99220.88;1629039;86;21840;-62
2022/09/26 06:49:51;;;;;;;6.60;6.00;;;;;;;15.02;100.00;99215.48;1624018;86;21472;-60
2022/09/26 06:52:26;;;;;;;4.95;4.50;;;;;;;15.05;100.00;99228.03;1610041;86;21557;-61
2022/09/26 06:54:55;;;;;;;4.72;4.28;;;;;;;15.10;100.00;99235.66;1621818;86;21140;-61
2022/09/26 06:57:22;;;;;;;4.35;3.95;;;;;;;15.10;100.00;99233.84;1578424;88;21635;-61
2022/09/26 06:59:50;;;;;;;4.10;3.80;;;;;;;15.05;100.00;99237.30;1632259;86;27203;-60
2022/09/26 07:02:18;;;;;;;3.92;3.62;;;;;;;15.04;100.00;99242.21;1579397;88;21012;-61
2022/09/26 07:05:05;;;;;;;4.17;3.77;;;;;;;15.06;100.00;99239.47;1625430;86;21674;-61
2022/09/26 07:07:42;;;;;;;5.95;4.22;;;;;;;15.02;100.00;99229.55;1633053;86;21029;-60
2022/09/26 07:10:10;;;;;;;5.50;4.30;;;;;;;14.99;100.00;99223.13;1623751;86;21601;-61
2022/09/26 07:13:04;;;;;;;4.55;3.92;;;;;;;14.98;100.00;99229.40;1622320;86;21949;-60
2022/09/26 07:15:32;;;;;;;4.87;4.37;;;;;;;15.01;100.00;99221.23;1624589;85;21510;-61
2022/09/26 07:18:03;;;;;;;4.22;3.77;;;;;;;15.05;100.00;99229.36;1629076;86;21537;-62
2022/09/26 07:20:35;;;;;;;4.30;3.72;;;;;;;15.09;100.00;99224.70;1617147;85;21483;-62
2022/09/26 07:23:16;;;;;;;3.92;3.62;;;;;;;15.11;100.00;99219.66;1627760;86;21517;-60
2022/09/26 07:25:45;;;;;;;4.47;4.10;;;;;;;15.13;100.00;99212.95;1627771;86;21906;-61
2022/09/26 07:28:12;;;;;;;7.62;3.98;;;;;;;15.14;100.00;99217.27;1596694;87;21432;-60
2022/09/26 07:30:43;;;;;;;4.40;4.10;;;;;;;15.15;100.00;99215.02;1624330;85;21533;-61
2022/09/26 07:33:15;;;;;;;4.65;3.92;;;;;;;15.19;100.00;99207.22;1627506;85;21554;-61
2022/09/26 07:35:44;;;;;;;4.30;3.90;;;;;;;15.24;100.00;99211.73;1632522;85;21101;-61
2022/09/26 07:38:11;;;;;;;4.45;4.08;;;;;;;15.30;100.00;99211.79;1624602;85;21870;-61
2022/09/26 07:40:39;;;;;;;4.25;3.85;;;;;;;15.38;100.00;99211.61;1618890;85;21509;-62
2022/09/26 07:43:06;;;;;;;4.35;4.05;;;;;;;15.44;100.00;99212.14;1633376;85;21678;-61
2022/09/26 07:51:23;;;;;;;4.28;3.87;;;;;;;15.60;100.00;99194.22;1632539;86;22113;-61
2022/09/26 07:53:51;;;;;;;4.30;3.90;;;;;;;15.67;100.00;99199.92;1595973;88;21032;-60
2022/09/26 07:56:22;;;;;;;4.17;3.77;;;;;;;15.73;100.00;99195.53;1633453;85;21728;-61
2022/09/26 07:59:05;;;;;;;3.95;3.65;;;;;;;15.84;100.00;99197.42;1633913;85;27045;-61
2022/09/26 08:01:40;;;;;;;4.22;3.65;;;;;;;15.90;100.00;99191.70;1636419;85;21545;-62
2022/09/26 08:04:28;;;;;;;6.70;4.08;;;;;;;15.92;100.00;99190.63;1589259;89;21850;-61
2022/09/26 08:06:56;;;;;;;3.95;3.60;;;;;;;15.95;100.00;99190.88;1559538;90;21646;-61
2022/09/26 08:09:23;;;;;;;4.15;3.75;;;;;;;15.98;100.00;99184.03;1606578;86;21532;-63
2022/09/26 08:12:08;;;;;;;4.20;3.80;;;;;;;16.10;100.00;99183.61;1640230;85;21567;-63
2022/09/26 08:14:38;;;;;;;4.15;3.85;;;;;;;16.19;100.00;99183.43;1611025;87;21682;-64
2022/09/26 08:17:07;;;;;;;4.17;3.80;;;;;;;16.23;100.00;99180.42;1596203;87;21877;-62
2022/09/26 08:19:34;;;;;;;4.00;3.60;;;;;;;16.33;100.00;99172.17;1643394;85;21560;-62
2022/09/26 08:22:01;;;;;;;3.55;3.25;;;;;;;16.43;100.00;99164.86;1637139;85;21475;-62
2022/09/26 08:24:28;;;;;;;3.83;3.52;;;;;;;16.54;100.00;99163.08;1641098;86;21603;-62
2022/09/26 08:26:54;;;;;;;3.62;3.25;;;;;;;16.67;100.00;99158.16;1636405;85;21606;-63
2022/09/26 08:29:23;;;;;;;4.00;3.52;;;;;;;16.86;100.00;99148.37;1633562;86;21913;-63
2022/09/26 08:31:53;;;;;;;4.37;3.52;;;;;;;17.02;99.66;99149.35;1634664;86;21460;-63
2022/09/26 08:34:20;;;;;;;4.75;3.80;;;;;;;17.21;98.31;99146.11;1630847;86;21607;-63
2022/09/26 08:36:53;;;;;;;4.10;3.70;;;;;;;17.36;96.80;99141.41;1635731;86;21467;-62
2022/09/26 08:39:34;;;;;;;4.75;3.55;;;;;;;17.58;96.95;99140.55;1584808;86;21560;-64
2022/09/26 08:42:32;;;;;;;4.92;3.30;;;;;;;17.72;95.39;99145.59;1599950;85;21567;-61
2022/09/26 08:48:55;;;;;;;3.10;2.90;;;;;;;17.87;92.33;99149.70;1561659;86;21713;-61
2022/09/26 08:51:35;;;;;;;3.20;2.90;;;;;;;17.94;90.28;99146.56;1639980;86;21668;-61
2022/09/26 08:54:15;;;;;;;3.50;3.20;;;;;;;17.96;88.90;99149.94;1642176;85;21668;-61
2022/09/26 08:56:49;;;;;;;3.67;3.12;;;;;;;18.01;88.20;99149.93;1638352;86;21943;-60
2022/09/26 08:59:38;;;;;;;5.12;3.50;;;;;;;18.08;86.71;99148.47;1647110;85;21466;-62
2022/09/26 09:02:30;;;;;;;4.25;2.92;;;;;;;18.18;86.75;99151.21;1644548;85;21771;-61
2022/09/26 09:05:07;;;;;;;2.87;2.67;;;;;;;18.28;85.79;99145.97;1600138;85;21509;-65
2022/09/26 09:07:35;;;;;;;3.83;2.77;;;;;;;18.37;84.94;99140.37;1635205;85;21529;-62
2022/09/26 09:10:46;;;;;;;3.72;3.45;;;;;;;18.47;84.41;99139.95;1687690;83;21494;-62
2022/09/26 09:13:35;;;;;;;3.60;2.98;;;;;;;18.54;83.00;99141.63;1644083;83;21745;-61
2022/09/26 09:20:08;;;;;;;3.47;2.60;;;;;;;18.74;82.59;99137.27;1581346;88;21519;-63
2022/09/26 09:23:14;;;;;;;2.95;2.75;;;;;;;18.88;80.35;99144.98;1591738;88;21571;-60
2022/09/26 09:26:10;;;;;;;4.25;2.85;;;;;;;18.99;79.00;99140.91;1563114;89;21817;-62
2022/09/26 09:29:14;;;;;;;2.62;2.42;;;;;;;19.13;77.42;99144.20;1589782;88;21447;-62
2022/09/26 09:31:43;;;;;;;4.95;3.08;;;;;;;19.18;76.01;99145.98;1577641;87;21590;-63
2022/09/26 09:34:25;;;;;;;4.03;2.40;;;;;;;19.25;75.97;99139.16;1628080;84;21465;-61
2022/09/26 09:37:06;;;;;;;2.65;2.45;;;;;;;19.41;75.30;99138.65;1614894;87;21578;-61
2022/09/26 09:39:52;;;;;;;2.83;2.62;;;;;;;19.63;74.50;99135.78;1659623;84;21833;-62
2022/09/26 09:42:47;;;;;;;3.05;2.80;;;;;;;19.80;73.54;99137.48;1657959;84;21509;-61
2022/09/26 09:45:28;;;;;;;5.72;2.70;;;;;;;19.94;72.78;99135.73;1623451;86;21005;-62
2022/09/26 09:47:56;;;;;;;4.40;2.55;;;;;;;20.10;72.35;99128.53;1619866;87;21620;-62
2022/09/26 09:50:53;;;;;;;2.40;2.30;;;;;;;20.27;71.95;99127.47;1660208;84;21433;-62
2022/09/26 09:53:37;;;;;;;5.87;2.90;;;;;;;20.34;69.11;99125.93;1632011;85;21934;-61
2022/09/26 09:56:30;;;;;;;2.40;2.20;;;;;;;20.46;69.62;99125.32;1626166;86;21063;-63
2022/09/26 09:59:27;;;;;;;3.40;2.20;;;;;;;20.56;69.29;99130.98;1659322;84;21545;-62
2022/09/26 10:02:10;;;;;;;4.87;2.40;;;;;;;20.68;68.27;99123.72;1660769;84;21525;-63
2022/09/26 10:06:08;;;;;;;2.60;2.40;;;;;;;20.36;71.73;99118.16;1767321;79;23097;-62
2022/09/26 10:08:40;;;;;;;4.47;2.25;;;;;;;20.86;66.78;99104.27;1682316;83;21433;-61
2022/09/26 10:11:40;;;;;;;2.22;2.02;;;;;;;20.87;66.15;99105.46;1689050;83;21814;-63
2022/09/26 10:14:55;;;;;;;2.45;2.25;;;;;;;20.91;66.25;99103.34;1668731;84;21079;-62
2022/09/26 10:17:30;;;;;;;3.05;2.62;;;;;;;20.95;65.64;99097.55;1614413;84;21535;-61
2022/09/26 10:20:20;;;;;;;;;;;;;;;20.94;65.76;99101.70;1685175;84;21579;-62
2022/09/26 10:22:47;;;;;;;3.08;2.17;;;;;;;20.94;62.57;99092.34;1685324;83;20152;-62
2022/09/26 10:25:21;;;;;;;2.95;2.20;;;;;;;20.93;67.19;99088.02;1681964;84;21922;-63
2022/09/26 10:27:54;;;;;;;2.50;2.30;;;;;;;20.88;66.70;99085.76;1688757;83;21443;-63
2022/09/26 10:30:24;;;;;;;2.33;2.12;;;;;;;20.83;66.24;99081.83;1666473;84;21450;-63
2022/09/26 10:32:58;;;;;;;4.25;2.65;;;;;;;20.81;65.55;99077.97;1682478;83;21534;-63
2022/09/26 10:35:40;;;;;;;2.92;2.62;;;;;;;20.74;65.26;99077.72;1653418;84;21521;-63
2022/09/26 10:38:26;;;;;;;4.55;2.60;;;;;;;20.71;65.27;99075.83;1690408;83;21932;-64
2022/09/26 10:41:00;;;;;;;2.92;2.62;;;;;;;20.64;65.00;99080.89;1676009;84;21076;-62
2022/09/26 10:43:34;;;;;;;3.08;2.72;;;;;;;20.69;65.55;99073.80;1693191;84;21527;-61
2022/09/26 10:46:18;;;;;;;2.55;2.42;;;;;;;20.77;64.70;99068.56;1676654;84;21557;-66
2022/09/26 10:49:00;;;;;;;4.00;2.90;;;;;;;20.84;64.10;99061.66;1614796;84;21494;-63
2022/09/26 10:51:41;;;;;;;4.37;2.90;;;;;;;20.90;63.75;99055.73;1620417;83;21514;-63
2022/09/26 10:54:17;;;;;;;2.90;2.70;;;;;;;20.94;63.32;99061.12;1694507;83;21527;-62
2022/09/26 10:56:46;;;;;;;3.40;2.40;;;;;;;20.97;63.03;99058.67;1666322;84;21517;-65
2022/09/26 10:59:16;;;;;;;2.35;2.15;;;;;;;20.97;62.76;99056.00;1686616;83;21602;-65
2022/09/26 11:01:50;;;;;;;2.72;2.40;;;;;;;21.00;63.64;99055.68;1685486;83;21606;-63
2022/09/26 11:07:23;;;;;;;3.45;2.33;;;;;;;20.96;62.67;99049.82;1635784;84;21487;-62
2022/09/26 11:09:55;;;;;;;2.50;2.30;;;;;;;20.93;61.99;99050.09;1666046;84;21456;-63
2022/09/26 11:12:30;;;;;;;2.47;2.22;;;;;;;20.91;62.73;99056.59;1644468;84;21487;-63
2022/09/26 11:15:02;;;;;;;2.55;2.35;;;;;;;20.94;61.51;99048.26;1672067;83;21560;-65
2022/09/26 11:17:48;;;;;;;2.20;2.00;;;;;;;21.00;61.01;99047.20;1669208;84;21478;-63
2022/09/26 11:20:40;;;;;;;2.22;1.80;;;;;;;21.03;62.55;99046.55;1668265;82;21017;-67
2022/09/26 11:23:33;;;;;;;2.77;1.70;;;;;;;20.99;61.82;99043.33;1736692;80;21487;-64
2022/09/26 11:26:36;;;;;;;3.22;2.37;;;;;;;20.95;62.35;99043.28;1709671;80;21523;-64
2022/09/26 11:29:17;;;;;;;2.42;1.70;;;;;;;20.95;61.54;99038.77;1724258;82;21440;-64
2022/09/26 11:31:47;;;;;;;3.33;2.00;;;;;;;21.00;61.50;99040.98;1721218;81;22103;-64
2022/09/26 11:34:25;;;;;;;1.85;1.75;;;;;;;21.03;61.63;99035.86;1708901;81;21388;-64
2022/09/26 11:37:34;;;;;;;2.85;1.70;;;;;;;21.14;60.09;99043.19;1737039;80;21679;-65
2022/09/26 11:40:24;;;;;;;1.90;1.80;;;;;;;21.14;60.09;99043.19;1722068;82;21566;-65
2022/09/26 11:43:16;;;;;;;2.27;2.12;;;;;;;21.14;59.70;99053.88;1730364;82;21576;-63
2022/09/26 11:46:27;;;;;;;3.08;2.15;;;;;;;21.14;58.96;99054.38;1729361;82;22109;-63
2022/09/26 11:49:22;;;;;;;2.55;2.30;;;;;;;21.03;59.53;99043.88;1723535;81;21535;-62
2022/09/26 11:52:25;;;;;;;2.42;2.22;;;;;;;20.98;59.06;99045.17;1726143;81;21554;-63
2022/09/26 11:55:13;;;;;;;2.27;2.10;;;;;;;21.02;58.72;99049.73;1725339;80;21455;-62
2022/09/26 11:57:46;;;;;;;2.12;2.02;;;;;;;21.07;58.22;99048.77;1728837;82;21494;-62
2022/09/26 12:00:31;;;;;;;2.25;2.15;;;;;;;21.07;58.75;99047.94;1725234;80;21809;-63
2022/09/26 12:03:37;;;;;;;3.42;2.00;;;;;;;21.06;59.10;99040.89;1718658;81;21119;-62
2022/09/26 12:06:43;;;;;;;2.62;2.02;;;;;;;21.02;59.59;99043.52;1723022;81;21478;-62
2022/09/26 12:09:28;;;;;;;2.00;1.90;;;;;;;20.96;60.08;99042.27;1733045;80;21451;-62
2022/09/26 12:12:23;;;;;;;2.00;1.90;;;;;;;20.90;59.92;99038.86;1732126;80;21561;-63
2022/09/26 12:15:13;;;;;;;1.85;1.72;;;;;;;20.84;60.09;99031.44;1734136;80;21796;-63
2022/09/26 12:17:58;;;;;;;2.22;2.05;;;;;;;20.59;60.85;99009.70;1733048;80;21527;-63
2022/09/26 12:20:57;;;;;;;2.02;1.90;;;;;;;20.70;60.26;99028.72;1731902;80;21687;-62
2022/09/26 12:23:56;;;;;;;2.12;1.85;;;;;;;20.66;60.03;99026.83;1726635;81;21656;-66
2022/09/26 12:26:43;;;;;;;2.10;2.00;;;;;;;20.62;59.78;99029.45;1733016;81;21494;-62
2022/09/26 12:29:26;;;;;;;5.00;1.92;;;;;;;20.57;60.16;99032.53;1731329;80;21977;-64
2022/09/26 12:32:01;;;;;;;2.17;2.05;;;;;;;20.57;60.18;99033.87;1728102;80;21538;-63
2022/09/26 12:34:45;;;;;;;1.98;1.87;;;;;;;20.51;60.25;99032.26;1733510;81;21073;-63